TimeCDT,TemperatureF,Dew PointF,Humidity,Sea Level PressureIn,VisibilityMPH,Wind Direction,Wind SpeedMPH,Gust SpeedMPH,PrecipitationIn,Events,Conditions,WindDirDegrees,DateUTC
12:15 AM,79.5,74.8,86,29.97,10.0,Calm,Calm,-,N/A,,Clear,0,2013-08-07 05:15:00
12:35 AM,79.7,75.0,86,29.97,7.0,Calm,Calm,-,N/A,,Clear,0,2013-08-07 05:35:00
12:55 AM,79.7,74.8,85,29.96,10.0,Calm,Calm,-,N/A,,Clear,0,2013-08-07 05:55:00
1:15 AM,80.2,75.2,85,29.95,10.0,SW,3.5,-,N/A,,Clear,230,2013-08-07 06:15:00
1:35 AM,80.1,75.2,85,29.95,10.0,Calm,Calm,-,N/A,,Clear,0,2013-08-07 06:35:00
1:55 AM,80.1,75.2,85,29.94,7.0,Calm,Calm,-,N/A,,Clear,0,2013-08-07 06:55:00
2:15 AM,79.9,75.2,86,29.94,10.0,WSW,3.5,-,N/A,,Clear,240,2013-08-07 07:15:00
2:35 AM,79.7,74.8,85,29.94,7.0,West,3.5,-,N/A,,Clear,260,2013-08-07 07:35:00
2:55 AM,79.7,74.8,85,29.94,10.0,WSW,4.6,-,N/A,,Clear,250,2013-08-07 07:55:00
3:15 AM,79.5,74.8,86,29.93,7.0,Calm,Calm,-,N/A,,Clear,0,2013-08-07 08:15:00
3:35 AM,79.0,74.8,87,29.94,7.0,WSW,3.5,-,N/A,,Clear,250,2013-08-07 08:35:00
3:55 AM,78.8,74.7,87,29.94,10.0,West,3.5,-,N/A,,Clear,260,2013-08-07 08:55:00
4:15 AM,79.2,74.5,86,29.94,7.0,West,3.5,-,N/A,,Clear,270,2013-08-07 09:15:00
4:35 AM,79.2,74.5,86,29.94,7.0,Calm,Calm,-,N/A,,Clear,0,2013-08-07 09:35:00
4:55 AM,78.3,73.9,87,29.94,7.0,Calm,Calm,-,N/A,,Clear,0,2013-08-07 09:55:00
5:15 AM,77.5,73.8,88,29.94,7.0,Calm,Calm,-,N/A,,Clear,0,2013-08-07 10:15:00
5:35 AM,78.3,74.7,89,29.93,7.0,WSW,3.5,-,N/A,,Clear,250,2013-08-07 10:35:00
5:48 AM,78.8,75.2,89,29.94,6.0,WSW,4.6,-,N/A,,Scattered Clouds,240,2013-08-07 10:48:00
5:55 AM,78.8,74.7,87,29.93,7.0,Calm,Calm,-,N/A,,Clear,0,2013-08-07 10:55:00
6:50 AM,77.0,73.4,89,29.96,7.0,Calm,Calm,-,N/A,,Partly Cloudy,0,2013-08-07 11:50:00
7:50 AM,82.4,75.2,79,29.98,7.0,NNE,4.6,-,N/A,,Clear,30,2013-08-07 12:50:00
8:50 AM,86.0,75.2,70,29.98,7.0,NNW,6.9,-,N/A,,Partly Cloudy,330,2013-08-07 13:50:00
9:50 AM,89.6,73.4,59,29.98,7.0,NW,4.6,-,N/A,,Scattered Clouds,320,2013-08-07 14:50:00
10:48 AM,89.6,71.6,55,30.00,7.0,North,9.2,-,N/A,,Scattered Clouds,350,2013-08-07 15:48:00
11:50 AM,93.2,68.0,44,29.99,7.0,NE,6.9,-,N/A,,Scattered Clouds,40,2013-08-07 16:50:00
12:50 PM,93.2,69.8,46,29.98,7.0,NE,4.6,-,N/A,,Scattered Clouds,40,2013-08-07 17:50:00
1:50 PM,93.2,69.8,46,29.97,7.0,North,5.8,-,N/A,,Scattered Clouds,360,2013-08-07 18:50:00
2:50 PM,93.2,71.6,49,29.95,7.0,South,4.6,-,N/A,,Mostly Cloudy,170,2013-08-07 19:50:00
3:50 PM,93.2,73.4,52,29.93,7.0,SSW,9.2,-,N/A,,Scattered Clouds,210,2013-08-07 20:50:00
4:50 PM,93.2,73.4,52,29.91,7.0,South,6.9,-,N/A,,Scattered Clouds,180,2013-08-07 21:50:00
5:50 PM,91.4,73.4,55,29.90,7.0,South,4.6,-,N/A,,Partly Cloudy,180,2013-08-07 22:50:00
7:15 PM,89.1,73.4,60,29.90,7.0,SW,8.1,-,N/A,,Mostly Cloudy,230,2013-08-08 00:15:00
7:55 PM,85.8,74.5,69,29.91,10.0,WSW,4.6,-,N/A,,Unknown,240,2013-08-08 00:55:00
8:15 PM,84.9,74.8,72,29.91,-9999.0,WSW,4.6,-,N/A,,Unknown,240,2013-08-08 01:15:00
8:35 PM,84.2,75.0,74,29.91,10.0,WSW,3.5,-,N/A,,Clear,240,2013-08-08 01:35:00
8:55 PM,83.5,75.2,76,29.92,10.0,Calm,Calm,-,N/A,,Clear,0,2013-08-08 01:55:00
9:15 PM,82.8,75.2,78,29.92,10.0,WSW,4.6,-,N/A,,Clear,240,2013-08-08 02:15:00
9:35 PM,82.6,74.7,77,29.93,10.0,West,3.5,-,N/A,,Clear,260,2013-08-08 02:35:00
9:55 PM,82.0,74.8,79,29.94,10.0,Calm,Calm,-,N/A,,Clear,0,2013-08-08 02:55:00
10:15 PM,81.5,74.8,80,29.94,10.0,Calm,Calm,-,N/A,,Clear,0,2013-08-08 03:15:00
10:35 PM,81.1,74.8,81,29.94,10.0,Calm,Calm,-,N/A,,Clear,0,2013-08-08 03:35:00
10:55 PM,80.2,75.0,84,29.94,10.0,Calm,Calm,-,N/A,,Clear,0,2013-08-08 03:55:00
11:15 PM,79.0,74.5,86,29.94,10.0,Calm,Calm,-,N/A,,Clear,0,2013-08-08 04:15:00
11:35 PM,79.7,75.2,86,29.94,10.0,Calm,Calm,-,N/A,,Clear,0,2013-08-08 04:35:00
11:55 PM,79.7,75.0,86,29.93,10.0,Calm,Calm,-,N/A,,Clear,0,2013-08-08 04:55:00